createdAt,value
2023-02-11T08:41:37.277Z,101347.50
2023-02-11T08:44:08.564Z,101355.97
2023-02-11T08:46:37.846Z,101354.13
2023-02-11T08:49:06.868Z,101354.84
2023-02-11T08:51:35.910Z,101367.66
2023-02-11T08:54:06.237Z,101370.16
2023-02-11T08:56:40.110Z,101373.31
2023-02-11T08:59:10.521Z,101370.53
2023-02-11T09:01:40.175Z,101373.63
2023-02-11T09:04:11.081Z,101369.84
2023-02-11T09:06:40.932Z,101368.00
2023-02-11T09:09:16.588Z,101373.44
2023-02-11T09:11:48.483Z,101379.16
2023-02-11T09:14:20.503Z,101360.47
2023-02-11T09:16:50.872Z,101370.06
2023-02-11T09:19:20.757Z,101381.28
2023-02-11T09:21:50.112Z,101385.69
2023-02-11T09:24:19.694Z,101382.47
2023-02-11T09:26:50.759Z,101374.91
2023-02-11T09:29:20.235Z,101371.69
2023-02-11T09:31:49.935Z,101377.22
2023-02-11T09:34:19.420Z,101377.56
2023-02-11T09:36:48.872Z,101369.66
2023-02-11T09:39:20.865Z,101365.28
2023-02-11T09:42:40.464Z,101366.25
2023-02-11T09:45:19.207Z,101374.03
2023-02-11T09:47:56.039Z,101368.97
2023-02-11T09:50:32.158Z,101375.28
2023-02-11T09:53:05.130Z,101369.28
2023-02-11T09:55:39.714Z,101372.19
2023-02-11T09:58:15.932Z,101378.16
2023-02-11T10:00:50.394Z,101371.69
2023-02-11T10:03:47.734Z,101378.94
2023-02-11T10:06:41.013Z,101369.22
2023-02-11T10:09:44.348Z,101370.34
2023-02-11T10:12:39.241Z,101376.03
2023-02-11T10:15:22.887Z,101375.84
2023-02-11T10:18:13.368Z,101372.91
2023-02-11T10:20:51.306Z,101377.75
2023-02-11T10:23:28.741Z,101373.88
2023-02-11T10:26:00.241Z,101374.16
2023-02-11T10:28:35.125Z,101361.50
2023-02-11T10:31:11.671Z,101371.84
2023-02-11T10:33:46.314Z,101367.13
2023-02-11T10:36:19.815Z,101372.13
2023-02-11T10:38:49.168Z,101371.41
2023-02-11T10:41:23.137Z,101365.56
2023-02-11T10:43:53.375Z,101358.13
2023-02-11T10:46:30.933Z,101359.84
2023-02-11T10:49:00.426Z,101368.91
2023-02-11T10:51:34.293Z,101364.84
2023-02-11T10:54:21.362Z,101372.91
2023-02-11T10:56:53.464Z,101371.75
2023-02-11T10:59:29.376Z,101367.84
2023-02-11T11:02:02.531Z,101363.09
2023-02-11T11:04:42.291Z,101362.59
2023-02-11T11:07:17.757Z,101363.69
2023-02-11T11:09:53.265Z,101370.78
2023-02-11T11:12:40.323Z,101370.44
2023-02-11T11:15:22.125Z,101374.91
2023-02-11T11:18:21.507Z,101370.84
2023-02-11T11:21:00.357Z,101379.38
2023-02-11T11:23:31.587Z,101381.44
2023-02-11T11:26:07.527Z,101389.97
2023-02-11T11:28:42.830Z,101390.88
2023-02-11T11:31:19.461Z,101393.44
2023-02-11T11:33:52.648Z,101395.31
2023-02-11T11:36:33.745Z,101400.44
2023-02-11T11:39:17.743Z,101401.34
2023-02-11T11:41:57.445Z,101397.09
2023-02-11T11:44:31.772Z,101397.97
2023-02-11T11:47:28.054Z,101386.88
2023-02-11T11:50:32.584Z,101365.38
2023-02-11T11:53:07.688Z,101357.47
2023-02-11T11:55:43.577Z,101359.97
2023-02-11T11:58:17.806Z,101348.84
2023-02-11T12:01:01.603Z,101347.75
2023-02-11T12:04:19.747Z,101343.25
2023-02-11T12:07:13.340Z,101341.59
2023-02-11T12:09:56.042Z,101332.16
2023-02-11T12:12:38.786Z,101334.28
2023-02-11T12:15:27.997Z,101346.75
2023-02-11T12:18:19.248Z,101341.53
2023-02-11T12:21:12.230Z,101345.91
2023-02-11T12:24:00.177Z,101334.72
2023-02-11T12:26:39.258Z,101333.09
2023-02-11T12:29:22.185Z,101347.09
2023-02-11T12:32:10.635Z,101336.25
2023-02-11T12:34:59.257Z,101345.22
2023-02-11T12:37:43.760Z,101343.34
2023-02-11T12:40:23.733Z,101348.97
2023-02-11T12:43:18.579Z,101351.28
2023-02-11T12:46:33.763Z,101345.19
2023-02-11T12:49:31.721Z,101345.56
2023-02-11T12:52:17.763Z,101346.75
2023-02-11T12:54:55.786Z,101337.50
2023-02-11T12:57:29.597Z,101342.09
2023-02-11T13:00:05.448Z,101343.25
2023-02-11T13:02:43.558Z,101354.22
2023-02-11T13:05:27.163Z,101347.75
2023-02-11T13:08:05.127Z,101349.13
2023-02-11T13:10:38.176Z,101342.66
2023-02-11T13:13:20.438Z,101343.03
2023-02-11T13:15:55.090Z,101333.94
2023-02-11T13:18:49.568Z,101337.28
2023-02-11T13:21:33.579Z,101339.25
2023-02-11T13:24:17.600Z,101330.81
2023-02-11T13:26:56.166Z,101335.41
2023-02-11T13:29:37.452Z,101332.97
2023-02-11T13:32:13.119Z,101336.75
2023-02-11T13:35:00.033Z,101331.28
2023-02-11T13:37:37.481Z,101333.09
2023-02-11T13:40:22.654Z,101328.25
2023-02-11T13:42:55.072Z,101319.97
2023-02-11T13:45:33.281Z,101318.72
2023-02-11T13:48:06.591Z,101324.28
2023-02-11T13:50:40.838Z,101319.44
2023-02-11T13:53:10.430Z,101326.63
2023-02-11T13:55:41.376Z,101329.38
2023-02-11T13:58:40.001Z,101326.31
2023-02-11T14:01:10.844Z,101328.47
2023-02-11T14:03:59.252Z,101325.06
2023-02-11T14:07:02.567Z,101324.25
2023-02-11T14:09:40.366Z,101334.81
2023-02-11T14:12:36.750Z,101333.56
2023-02-11T14:15:30.462Z,101334.56
2023-02-11T14:18:01.408Z,101334.56
2023-02-11T14:20:42.354Z,101335.38
2023-02-11T14:23:27.379Z,101337.31
2023-02-11T14:26:26.679Z,101330.69
2023-02-11T14:29:05.026Z,101333.31
2023-02-11T14:31:43.493Z,101332.66
2023-02-11T14:34:47.674Z,101337.41
2023-02-11T14:37:35.928Z,101328.34
2023-02-11T14:40:19.100Z,101333.09
2023-02-11T14:42:48.738Z,101341.06
2023-02-11T14:45:24.911Z,101330.19
2023-02-11T14:48:02.792Z,101337.03
2023-02-11T14:50:41.544Z,101346.59
2023-02-11T14:53:17.826Z,101346.78
2023-02-11T14:55:52.556Z,101348.56
2023-02-11T14:58:25.068Z,101350.53
2023-02-11T15:00:58.627Z,101340.34
2023-02-11T15:03:37.629Z,101337.09
2023-02-11T15:06:18.477Z,101339.06
2023-02-11T15:08:53.845Z,101345.22
2023-02-11T15:11:25.838Z,101334.22
2023-02-11T15:13:59.149Z,101348.81
2023-02-11T15:16:30.276Z,101351.41
2023-02-11T15:19:06.066Z,101352.41
2023-02-11T15:21:38.165Z,101351.75
2023-02-11T15:24:24.399Z,101354.53
2023-02-11T15:27:02.489Z,101350.16
2023-02-11T15:29:39.544Z,101365.75
2023-02-11T15:32:16.937Z,101357.94
2023-02-11T15:34:48.506Z,101360.56
2023-02-11T15:37:23.699Z,101355.34
2023-02-11T15:39:55.997Z,101369.34
2023-02-11T15:42:28.796Z,101368.50
2023-02-11T15:45:26.002Z,101370.47
2023-02-11T15:47:59.356Z,101371.63
2023-02-11T15:50:31.795Z,101372.28
2023-02-11T15:53:21.668Z,101376.81
2023-02-11T15:56:19.834Z,101371.97
2023-02-11T15:58:50.874Z,101375.56
2023-02-11T16:01:23.495Z,101375.56
2023-02-11T16:03:59.357Z,101381.41
2023-02-11T16:06:47.942Z,101368.75
2023-02-11T16:09:50.470Z,101372.31
2023-02-11T16:12:35.755Z,101372.31
2023-02-11T16:15:47.722Z,101381.09
2023-02-11T16:18:51.966Z,101371.06
2023-02-11T16:21:39.295Z,101371.06
2023-02-11T16:24:28.244Z,101368.47
2023-02-11T16:27:04.564Z,101370.44
2023-02-11T16:29:39.193Z,101375.81
2023-02-11T16:32:14.703Z,101374.97
2023-02-11T16:34:56.762Z,101366.59
2023-02-11T16:37:36.484Z,101377.75
2023-02-11T16:40:16.041Z,101374.38
2023-02-11T16:43:03.726Z,101376.16
2023-02-11T16:45:44.271Z,101385.72
2023-02-11T16:48:21.978Z,101384.09
2023-02-11T16:50:58.275Z,101386.88
2023-02-11T16:53:37.301Z,101394.50
2023-02-11T16:56:09.950Z,101394.50
2023-02-11T16:58:43.784Z,101394.84
2023-02-11T17:01:19.331Z,101399.03
2023-02-11T17:03:58.218Z,101400.84
2023-02-11T17:06:39.801Z,101389.97
2023-02-11T17:09:24.937Z,101395.81
2023-02-11T17:12:02.300Z,101389.00
2023-02-11T17:14:43.562Z,101403.78
2023-02-11T17:17:16.771Z,101401.97
2023-02-11T17:19:49.022Z,101388.38
2023-02-11T17:22:19.156Z,101365.34
2023-02-11T17:24:56.095Z,101394.91
2023-02-11T17:27:31.585Z,101404.47
2023-02-11T17:30:02.916Z,101401.88
2023-02-11T17:32:40.767Z,101403.03
2023-02-11T17:35:14.266Z,101410.00
2023-02-11T17:37:49.197Z,101413.41
2023-02-11T17:40:27.872Z,101407.56
2023-02-11T17:43:12.251Z,101409.53
2023-02-11T17:45:48.930Z,101414.91
2023-02-11T17:48:18.644Z,101422.88
2023-02-11T17:50:48.172Z,101424.81
2023-02-11T17:53:18.033Z,101424.81
2023-02-11T17:55:47.627Z,101430.00
2023-02-11T17:58:17.302Z,101430.00
2023-02-11T18:00:48.241Z,101431.00
2023-02-11T18:03:17.855Z,101438.78
2023-02-11T18:05:47.335Z,101439.13
2023-02-11T18:08:17.046Z,101439.13
2023-02-11T18:10:47.848Z,101440.09
2023-02-11T18:13:17.476Z,101441.81
2023-02-11T18:15:48.465Z,101433.25
2023-02-11T18:18:18.149Z,101435.19
2023-02-11T18:20:57.128Z,101430.34
2023-02-11T18:23:27.338Z,101434.75
2023-02-11T18:25:57.060Z,101433.25
2023-02-11T18:28:26.485Z,101438.47
2023-02-11T18:31:00.786Z,101436.84
2023-02-11T18:33:31.099Z,101437.34
2023-02-11T18:36:00.980Z,101443.97
2023-02-11T18:38:30.620Z,101443.38
2023-02-11T18:41:00.388Z,101437.34
2023-02-11T18:43:31.815Z,101442.88
2023-02-11T18:46:03.569Z,101451.31
2023-02-11T18:48:33.322Z,101442.09
2023-02-11T18:51:02.816Z,101451.66
2023-02-11T18:53:32.308Z,101450.84
2023-02-11T18:56:01.957Z,101445.81
2023-02-11T18:58:31.538Z,101444.03
2023-02-11T19:01:02.473Z,101441.44
2023-02-11T19:03:32.195Z,101443.41
2023-02-11T19:06:01.751Z,101447.94
2023-02-11T19:08:31.386Z,101443.75
2023-02-11T19:11:00.801Z,101438.56
2023-02-11T19:13:31.138Z,101436.91
2023-02-11T19:16:02.096Z,101433.53
2023-02-11T19:18:31.608Z,101437.88
2023-02-11T19:21:01.034Z,101423.28
2023-02-11T19:23:30.582Z,101439.81
2023-02-11T19:25:59.991Z,101447.44
2023-02-11T19:28:30.886Z,101442.41
2023-02-11T19:31:08.213Z,101439.81
2023-02-11T19:33:38.138Z,101446.97
2023-02-11T19:36:09.783Z,101447.13
2023-02-11T19:38:40.046Z,101450.56
2023-02-11T19:41:09.716Z,101446.31
2023-02-11T19:43:41.658Z,101442.13
2023-02-11T19:46:12.624Z,101449.91
2023-02-11T19:48:42.129Z,101449.91
2023-02-11T19:51:13.361Z,101456.06
2023-02-11T19:53:43.757Z,101454.44
2023-02-11T19:56:14.012Z,101438.09
2023-02-11T19:58:47.654Z,101446.03
2023-02-11T20:01:21.639Z,101464.34
2023-02-11T20:03:53.403Z,101465.97
2023-02-11T20:06:25.394Z,101465.19
2023-02-11T20:08:58.442Z,101460.00
2023-02-11T20:11:30.498Z,101467.78
2023-02-11T20:14:00.936Z,101470.53
2023-02-11T20:16:47.660Z,101466.13
2023-02-11T20:19:20.414Z,101475.88
2023-02-11T20:21:53.352Z,101485.59
2023-02-11T20:24:23.800Z,101482.19
2023-02-11T20:26:55.970Z,101467.44
2023-02-11T20:29:27.474Z,101485.59
2023-02-11T20:31:58.519Z,101474.56
2023-02-11T20:34:28.211Z,101474.56
2023-02-11T20:36:57.621Z,101486.09
2023-02-11T20:39:28.118Z,101484.94
2023-02-11T20:41:58.257Z,101482.34
2023-02-11T20:44:28.303Z,101477.38
2023-02-11T20:46:59.192Z,101485.31
2023-02-11T20:49:28.773Z,101476.88
2023-02-11T20:51:58.592Z,101478.47
2023-02-11T20:54:28.085Z,101466.50
2023-02-11T20:56:58.392Z,101458.72
2023-02-11T20:59:28.466Z,101463.25
2023-02-11T21:01:59.972Z,101475.25
2023-02-11T21:04:32.791Z,101469.25
2023-02-11T21:07:03.291Z,101470.25
2023-02-11T21:09:34.570Z,101474.59
2023-02-11T21:12:04.521Z,101469.59
2023-02-11T21:14:34.521Z,101475.59
2023-02-11T21:17:05.515Z,101451.59
2023-02-11T21:19:35.147Z,101473.97
2023-02-11T21:22:04.808Z,101475.91
2023-02-11T21:24:35.741Z,101473.31
2023-02-11T21:27:05.330Z,101475.25
2023-02-11T21:29:40.445Z,101480.44
2023-02-11T21:32:17.773Z,101480.44
2023-02-11T21:34:47.346Z,101481.44
2023-02-11T21:37:16.840Z,101481.44
2023-02-11T21:39:46.433Z,101484.03
2023-02-11T21:42:15.844Z,101477.06
2023-02-11T21:44:45.340Z,101490.03
2023-02-11T21:47:16.211Z,101486.63
2023-02-11T21:49:45.824Z,101493.59
2023-02-11T21:52:15.444Z,101490.53
2023-02-11T21:54:45.150Z,101498.94
2023-02-11T21:57:14.638Z,101498.13
2023-02-11T21:59:44.512Z,101512.88
2023-02-11T22:02:15.333Z,101502.84
2023-02-11T22:04:44.928Z,101513.22
2023-02-11T22:07:14.496Z,101508.84
2023-02-11T22:09:44.337Z,101502.84
2023-02-11T22:12:14.112Z,101501.88
2023-02-11T22:14:43.961Z,101502.84
2023-02-11T22:17:13.543Z,101500.25
2023-02-11T22:19:44.586Z,101492.78
2023-02-11T22:22:18.278Z,101506.41
2023-02-11T22:24:48.071Z,101497.81
2023-02-11T22:27:20.271Z,101493.44
2023-02-11T22:29:50.073Z,101490.84
2023-02-11T22:32:19.716Z,101486.81
2023-02-11T22:34:53.215Z,101495.53
2023-02-11T22:37:22.941Z,101505.13
2023-02-11T22:39:52.534Z,101497.50
2023-02-11T22:42:22.144Z,101498.34
2023-02-11T22:44:51.841Z,101489.91
2023-02-11T22:47:21.305Z,101495.75
2023-02-11T22:49:52.069Z,101483.88
2023-02-11T22:52:22.620Z,101485.84
2023-02-11T22:54:52.717Z,101494.41
2023-02-11T22:57:22.457Z,101497.84
2023-02-11T22:59:51.965Z,101514.38
2023-02-11T23:02:21.574Z,101512.91
2023-02-11T23:04:52.952Z,101496.56
2023-02-11T23:07:22.600Z,101506.09
2023-02-11T23:09:52.182Z,101496.56
2023-02-11T23:12:21.771Z,101517.28
2023-02-11T23:14:52.819Z,101512.09
2023-02-11T23:17:24.589Z,101504.50
2023-02-11T23:19:55.534Z,101502.06
2023-02-11T23:22:28.095Z,101510.81
2023-02-11T23:24:57.725Z,101514.19
2023-02-11T23:27:27.244Z,101517.94
2023-02-11T23:29:57.909Z,101518.75
2023-02-11T23:32:27.455Z,101526.69
2023-02-11T23:34:58.666Z,101533.00
2023-02-11T23:37:28.269Z,101542.56
2023-02-11T23:39:57.709Z,101532.38
2023-02-11T23:42:28.798Z,101530.75
2023-02-11T23:44:58.348Z,101535.13
2023-02-11T23:47:27.816Z,101529.09
2023-02-11T23:49:59.669Z,101522.97
2023-02-11T23:52:29.094Z,101527.34
2023-02-11T23:54:58.512Z,101523.94
2023-02-11T23:57:27.938Z,101538.53
2023-02-11T23:59:57.443Z,101527.34
